createdAt,value
2018-11-29T00:00:41.400Z,54.86
2018-11-29T00:03:10.881Z,54.60
2018-11-29T00:05:39.589Z,54.55
2018-11-29T00:08:09.459Z,54.51
2018-11-29T00:10:38.896Z,54.61
2018-11-29T00:13:08.752Z,54.54
2018-11-29T00:15:36.420Z,54.58
2018-11-29T00:18:04.116Z,54.50
2018-11-29T00:20:32.164Z,54.70
2018-11-29T00:22:59.964Z,54.58
2018-11-29T00:25:30.319Z,54.55
2018-11-29T00:27:58.437Z,54.44
2018-11-29T00:30:26.128Z,54.37
2018-11-29T00:32:54.582Z,54.59
2018-11-29T00:35:22.198Z,54.62
2018-11-29T00:37:58.430Z,54.85
2018-11-29T00:40:26.163Z,55.11
2018-11-29T00:42:53.851Z,54.73
2018-11-29T00:45:23.223Z,54.92
2018-11-29T00:47:51.276Z,55.13
2018-11-29T00:50:19.342Z,55.08
2018-11-29T00:52:47.791Z,54.89
2018-11-29T00:55:17.262Z,55.08
2018-11-29T00:57:44.895Z,55.27
2018-11-29T01:00:19.032Z,54.84
2018-11-29T01:02:46.674Z,55.05
2018-11-29T01:05:14.382Z,54.79
2018-11-29T01:07:42.209Z,54.74
2018-11-29T01:10:12.670Z,54.99
2018-11-29T01:12:40.635Z,54.97
2018-11-29T01:15:10.431Z,54.57
2018-11-29T01:17:38.051Z,54.96
2018-11-29T01:20:08.256Z,54.97
2018-11-29T01:22:35.871Z,54.99
2018-11-29T01:25:03.517Z,54.88
2018-11-29T01:27:31.207Z,54.97
2018-11-29T01:29:58.872Z,55.04
2018-11-29T01:32:26.530Z,54.82
2018-11-29T01:34:54.183Z,54.78
2018-11-29T01:37:21.946Z,54.69
2018-11-29T01:39:49.567Z,54.65
2018-11-29T01:42:17.203Z,54.43
2018-11-29T01:44:44.872Z,54.93
2018-11-29T01:47:12.503Z,54.81
2018-11-29T01:49:40.197Z,54.57
2018-11-29T01:52:07.819Z,54.75
2018-11-29T01:54:35.484Z,54.75
2018-11-29T01:57:03.121Z,54.72
2018-11-29T01:59:30.812Z,54.57
2018-11-29T02:01:58.473Z,54.91
2018-11-29T02:04:26.118Z,55.63
2018-11-29T02:06:53.840Z,55.66
2018-11-29T02:09:21.478Z,55.23
2018-11-29T02:11:49.175Z,55.26
2018-11-29T02:14:16.863Z,55.47
2018-11-29T02:16:44.510Z,55.42
2018-11-29T02:19:18.724Z,55.45
2018-11-29T02:21:46.387Z,55.47
2018-11-29T02:24:14.035Z,55.84
2018-11-29T02:26:41.693Z,56.21
2018-11-29T02:29:09.339Z,56.38
2018-11-29T02:31:36.991Z,56.17
2018-11-29T02:34:05.430Z,56.48
2018-11-29T02:36:33.148Z,56.24
2018-11-29T02:39:00.903Z,56.14
2018-11-29T02:41:28.552Z,56.05
2018-11-29T02:43:56.226Z,55.78
2018-11-29T02:46:23.849Z,55.61
2018-11-29T02:48:51.546Z,56.24
2018-11-29T02:51:19.174Z,55.64
2018-11-29T02:53:46.783Z,55.64
2018-11-29T02:56:14.457Z,55.69
2018-11-29T02:58:42.210Z,55.73
2018-11-29T03:01:09.839Z,55.53
2018-11-29T03:03:37.490Z,55.38
2018-11-29T03:06:05.362Z,55.26
2018-11-29T03:08:32.985Z,56.16
2018-11-29T03:11:00.634Z,56.30
2018-11-29T03:13:28.292Z,56.12
2018-11-29T03:15:55.987Z,55.62
2018-11-29T03:18:23.630Z,55.87
2018-11-29T03:20:51.257Z,55.77
2018-11-29T03:23:18.962Z,55.55
2018-11-29T03:25:46.624Z,56.08
2018-11-29T03:28:14.287Z,55.96
2018-11-29T03:30:41.971Z,55.89
2018-11-29T03:33:09.650Z,55.97
2018-11-29T03:35:37.297Z,55.86
2018-11-29T03:38:04.988Z,55.97
2018-11-29T03:40:32.694Z,55.85
2018-11-29T03:43:00.313Z,56.17
2018-11-29T03:45:27.988Z,56.50
2018-11-29T03:47:55.608Z,56.55
2018-11-29T03:50:23.262Z,56.52
2018-11-29T03:52:50.944Z,56.58
2018-11-29T03:55:18.608Z,56.52
2018-11-29T03:57:46.248Z,56.61
2018-11-29T04:00:14.727Z,56.57
2018-11-29T04:02:42.573Z,56.60
2018-11-29T04:05:10.195Z,56.46
2018-11-29T04:07:37.874Z,56.73
2018-11-29T04:10:10.139Z,56.79
2018-11-29T04:12:37.841Z,57.03
2018-11-29T04:15:06.459Z,57.25
2018-11-29T04:17:40.372Z,56.37
2018-11-29T04:20:01.759Z,56.56
2018-11-29T04:22:29.415Z,56.51
2018-11-29T04:24:57.112Z,56.13
2018-11-29T04:27:24.759Z,56.93
2018-11-29T04:29:52.387Z,56.50
2018-11-29T04:32:20.049Z,56.28
2018-11-29T04:34:47.775Z,56.00
2018-11-29T04:37:15.413Z,56.09
2018-11-29T04:39:43.077Z,56.16
2018-11-29T04:42:10.768Z,55.90
2018-11-29T04:44:38.425Z,55.81
2018-11-29T04:47:06.055Z,55.77
2018-11-29T04:49:33.667Z,55.64
2018-11-29T04:52:01.339Z,55.91
2018-11-29T04:54:29.012Z,55.15
2018-11-29T04:56:56.651Z,55.64
2018-11-29T04:59:24.312Z,55.73
2018-11-29T05:01:51.927Z,55.82
2018-11-29T05:04:19.601Z,55.92
2018-11-29T05:06:47.368Z,55.64
2018-11-29T05:09:15.034Z,55.80
2018-11-29T05:11:42.687Z,55.73
2018-11-29T05:14:10.338Z,55.55
2018-11-29T05:16:37.995Z,55.44
2018-11-29T05:19:05.643Z,55.41
2018-11-29T05:21:33.382Z,56.28
2018-11-29T05:24:01.052Z,56.53
2018-11-29T05:26:28.712Z,56.39
2018-11-29T05:28:56.399Z,56.55
2018-11-29T05:31:24.166Z,56.04
2018-11-29T05:33:51.804Z,56.12
2018-11-29T05:36:19.437Z,56.13
2018-11-29T05:38:47.177Z,55.99
2018-11-29T05:41:14.807Z,56.17
2018-11-29T05:43:42.533Z,56.18
2018-11-29T05:46:10.458Z,55.63
2018-11-29T05:48:38.159Z,55.45
2018-11-29T05:51:05.805Z,55.06
2018-11-29T05:53:34.637Z,54.85
2018-11-29T05:56:02.273Z,54.55
2018-11-29T05:58:29.942Z,54.34
2018-11-29T06:01:00.105Z,54.57
2018-11-29T06:03:27.846Z,54.25
2018-11-29T06:05:55.461Z,54.24
2018-11-29T06:08:23.252Z,54.18
2018-11-29T06:10:50.945Z,54.04
2018-11-29T06:13:18.598Z,53.76
2018-11-29T06:15:46.270Z,53.99
2018-11-29T06:18:13.948Z,53.84
2018-11-29T06:20:41.661Z,53.80
2018-11-29T06:23:09.382Z,53.71
2018-11-29T06:25:37.046Z,53.53
2018-11-29T06:28:11.338Z,53.95
2018-11-29T06:30:39.025Z,53.75
2018-11-29T06:33:11.314Z,54.68
2018-11-29T06:35:41.222Z,55.32
2018-11-29T06:38:08.924Z,55.44
2018-11-29T06:40:36.745Z,55.39
2018-11-29T06:43:04.994Z,55.51
2018-11-29T06:45:33.017Z,55.18
2018-11-29T06:48:00.879Z,55.52
2018-11-29T06:50:29.338Z,55.27
2018-11-29T06:52:57.288Z,55.35
2018-11-29T06:55:25.893Z,55.24
2018-11-29T06:57:55.334Z,55.31
2018-11-29T07:00:27.136Z,55.42
2018-11-29T07:02:54.892Z,55.37
2018-11-29T07:05:22.566Z,55.33
2018-11-29T07:07:50.470Z,55.39
2018-11-29T07:10:22.727Z,55.33
2018-11-29T07:12:50.593Z,55.67
2018-11-29T07:15:18.243Z,55.70
2018-11-29T07:17:46.086Z,55.44
2018-11-29T07:20:14.867Z,55.61
2018-11-29T07:22:42.710Z,55.45
2018-11-29T07:25:10.594Z,55.35
2018-11-29T07:27:38.798Z,55.46
2018-11-29T07:30:11.099Z,54.81
2018-11-29T07:32:38.796Z,54.75
2018-11-29T07:35:07.351Z,54.53
2018-11-29T07:37:35.080Z,54.55
2018-11-29T07:40:03.826Z,54.31
2018-11-29T07:42:43.795Z,54.22
2018-11-29T07:45:12.893Z,54.29
2018-11-29T07:47:40.658Z,54.41
2018-11-29T07:50:15.211Z,54.34
2018-11-29T07:52:43.056Z,54.20
2018-11-29T07:55:14.085Z,54.03
2018-11-29T07:57:42.084Z,53.97
2018-11-29T08:00:11.933Z,53.99
2018-11-29T08:02:39.569Z,53.79
2018-11-29T08:05:08.572Z,53.90
2018-11-29T08:07:36.359Z,54.01
2018-11-29T08:10:05.207Z,53.76
2018-11-29T08:12:32.902Z,53.70
2018-11-29T08:15:00.594Z,53.55
2018-11-29T08:17:28.484Z,53.57
2018-11-29T08:19:56.276Z,53.56
2018-11-29T08:22:23.905Z,53.55
2018-11-29T08:24:51.568Z,53.62
2018-11-29T08:27:39.281Z,53.58
2018-11-29T08:30:09.246Z,53.46
2018-11-29T08:32:37.156Z,53.55
2018-11-29T08:35:05.122Z,53.27
2018-11-29T08:37:32.902Z,53.49
2018-11-29T08:40:00.592Z,53.43
2018-11-29T08:42:28.643Z,53.30
2018-11-29T08:44:56.348Z,53.07
2018-11-29T08:47:24.158Z,53.40
2018-11-29T08:49:51.872Z,53.18
2018-11-29T08:52:19.511Z,53.19
2018-11-29T08:54:47.211Z,53.23
2018-11-29T08:57:15.647Z,53.05
2018-11-29T08:59:42.608Z,53.04
2018-11-29T09:02:10.261Z,53.24
2018-11-29T09:04:58.460Z,53.01
2018-11-29T09:07:26.706Z,53.10
2018-11-29T09:09:54.446Z,53.09
2018-11-29T09:12:22.275Z,53.23
2018-11-29T09:14:49.913Z,53.07
2018-11-29T09:17:17.582Z,53.20
2018-11-29T09:19:45.245Z,53.13
2018-11-29T09:22:12.907Z,53.08
2018-11-29T09:24:40.614Z,52.99
2018-11-29T09:27:08.266Z,52.85
2018-11-29T09:29:36.035Z,52.90
2018-11-29T09:32:03.765Z,52.90
2018-11-29T09:34:33.353Z,53.03
2018-11-29T09:37:01.026Z,52.75
2018-11-29T09:39:28.720Z,52.76
2018-11-29T09:41:56.349Z,52.73
2018-11-29T09:44:24.203Z,52.87
2018-11-29T09:46:51.881Z,52.82
2018-11-29T09:49:19.689Z,52.67
2018-11-29T09:51:47.388Z,52.70
2018-11-29T09:54:15.214Z,52.72
2018-11-29T09:56:43.064Z,52.53
2018-11-29T09:59:10.785Z,52.59
2018-11-29T10:01:38.489Z,52.70
2018-11-29T10:04:09.556Z,52.44
2018-11-29T10:06:37.251Z,52.55
2018-11-29T10:09:08.020Z,52.63
2018-11-29T10:11:35.753Z,52.63
2018-11-29T10:16:37.591Z,52.48
2018-11-29T10:19:05.452Z,52.36
2018-11-29T10:21:33.102Z,52.45
2018-11-29T10:24:00.777Z,52.55
2018-11-29T10:26:28.481Z,52.53
2018-11-29T10:28:56.196Z,52.45
2018-11-29T10:31:23.964Z,52.04
2018-11-29T10:33:52.821Z,52.23
2018-11-29T10:36:20.610Z,52.26
2018-11-29T10:38:48.341Z,52.26
2018-11-29T10:41:15.996Z,52.30
2018-11-29T10:43:43.834Z,52.33
2018-11-29T10:46:11.516Z,52.17
2018-11-29T10:48:39.241Z,52.06
2018-11-29T10:51:07.119Z,52.00
2018-11-29T10:53:37.726Z,52.11
2018-11-29T10:56:02.957Z,51.99
2018-11-29T10:58:30.785Z,51.87
2018-11-29T11:01:03.987Z,51.90
2018-11-29T11:03:31.651Z,51.94
2018-11-29T11:05:59.452Z,52.32
2018-11-29T11:08:27.098Z,52.66
2018-11-29T11:10:54.801Z,52.55
2018-11-29T11:13:22.464Z,53.20
2018-11-29T11:15:50.120Z,53.19
2018-11-29T11:18:18.247Z,53.28
2018-11-29T11:20:46.192Z,53.49
2018-11-29T11:23:14.652Z,53.21
2018-11-29T11:25:42.512Z,53.40
2018-11-29T11:28:10.398Z,53.45
2018-11-29T11:30:40.613Z,53.32
2018-11-29T11:33:08.287Z,53.34
2018-11-29T11:35:36.208Z,53.54
2018-11-29T11:38:03.915Z,53.25
2018-11-29T11:40:31.703Z,53.25
2018-11-29T11:42:59.413Z,53.55
2018-11-29T11:45:28.008Z,53.33
2018-11-29T11:47:55.712Z,53.51
2018-11-29T11:50:24.127Z,53.62
2018-11-29T11:52:52.377Z,53.74
2018-11-29T11:55:20.090Z,53.22
2018-11-29T11:57:48.065Z,53.45
2018-11-29T12:00:23.331Z,53.29
2018-11-29T12:02:52.581Z,53.41
2018-11-29T12:05:20.315Z,53.27
2018-11-29T12:07:47.983Z,52.98
2018-11-29T12:10:15.977Z,53.22
2018-11-29T12:12:43.707Z,52.67
2018-11-29T12:15:12.416Z,53.00
2018-11-29T12:17:40.405Z,52.91
2018-11-29T12:20:09.797Z,53.31
2018-11-29T12:22:37.519Z,53.67
2018-11-29T12:25:06.552Z,53.48
2018-11-29T12:27:34.243Z,53.39
2018-11-29T12:30:02.015Z,53.39
2018-11-29T12:32:29.661Z,53.41
2018-11-29T12:34:57.288Z,53.27
2018-11-29T12:37:25.204Z,53.09
2018-11-29T12:39:52.844Z,53.22
2018-11-29T12:42:20.494Z,53.00
2018-11-29T12:44:48.254Z,52.87
2018-11-29T12:47:15.940Z,52.84
2018-11-29T12:49:43.584Z,52.85
2018-11-29T12:52:11.253Z,52.76
2018-11-29T12:54:38.955Z,52.64
2018-11-29T12:57:06.612Z,52.78
2018-11-29T12:59:34.416Z,52.89
2018-11-29T13:02:02.137Z,52.45
2018-11-29T13:04:29.794Z,52.51
2018-11-29T13:06:57.494Z,52.29
2018-11-29T13:09:25.143Z,52.53
2018-11-29T13:11:52.918Z,52.34
2018-11-29T13:14:20.523Z,52.35
2018-11-29T13:16:48.250Z,52.76
2018-11-29T13:19:16.111Z,52.87
2018-11-29T13:21:43.780Z,52.82
2018-11-29T13:24:11.524Z,52.89
2018-11-29T13:26:39.164Z,53.04
2018-11-29T13:29:06.784Z,53.04
2018-11-29T13:31:34.438Z,52.71
2018-11-29T13:34:02.059Z,53.02
2018-11-29T13:36:29.779Z,52.74
2018-11-29T13:38:57.375Z,52.90
2018-11-29T13:41:25.019Z,52.79
2018-11-29T13:43:52.763Z,52.63
2018-11-29T13:46:20.443Z,52.79
2018-11-29T13:48:48.158Z,52.59
2018-11-29T13:51:15.806Z,52.88
2018-11-29T13:53:43.604Z,52.69
2018-11-29T13:56:11.265Z,52.86
2018-11-29T13:58:39.021Z,53.09
2018-11-29T14:01:06.809Z,52.66
2018-11-29T14:03:34.688Z,52.67
2018-11-29T14:06:02.327Z,52.84
2018-11-29T14:08:30.124Z,52.77
2018-11-29T14:10:58.091Z,52.47
2018-11-29T14:13:25.487Z,52.49
2018-11-29T14:15:53.169Z,52.43
2018-11-29T14:18:20.826Z,52.58
2018-11-29T14:20:48.669Z,52.67
2018-11-29T14:23:16.290Z,52.59
2018-11-29T14:25:43.908Z,52.27
2018-11-29T14:28:11.628Z,52.48
2018-11-29T14:30:39.298Z,52.49
2018-11-29T14:33:07.350Z,52.51
2018-11-29T14:35:34.999Z,52.28
2018-11-29T14:38:02.669Z,52.54
2018-11-29T14:40:32.741Z,52.33
2018-11-29T14:43:00.372Z,52.38
2018-11-29T14:45:28.141Z,52.29
2018-11-29T14:47:56.014Z,52.42
2018-11-29T14:50:38.505Z,52.26
2018-11-29T14:53:07.248Z,52.27
2018-11-29T14:55:35.362Z,52.31
2018-11-29T14:58:03.063Z,51.96
2018-11-29T15:00:30.686Z,52.07
2018-11-29T15:02:59.013Z,52.32
2018-11-29T15:05:27.848Z,52.33
2018-11-29T15:07:55.500Z,52.24
2018-11-29T15:10:23.272Z,52.42
2018-11-29T15:12:50.948Z,52.41
2018-11-29T15:15:18.605Z,52.57
2018-11-29T15:17:47.068Z,52.31
2018-11-29T15:20:18.990Z,52.39
2018-11-29T15:22:47.328Z,52.27
2018-11-29T15:25:14.322Z,52.32
2018-11-29T15:27:42.028Z,52.34
2018-11-29T15:30:12.953Z,52.21
2018-11-29T15:32:40.626Z,52.10
2018-11-29T15:35:08.512Z,52.38
2018-11-29T15:37:36.365Z,52.22
2018-11-29T15:40:05.642Z,52.33
2018-11-29T15:42:33.511Z,52.13
2018-11-29T15:45:01.200Z,52.03
2018-11-29T15:47:28.842Z,52.04
2018-11-29T15:49:56.890Z,52.05
2018-11-29T15:52:24.541Z,52.09
2018-11-29T15:54:52.273Z,52.09
2018-11-29T15:57:19.908Z,51.91
2018-11-29T15:59:47.557Z,52.06
2018-11-29T16:02:15.203Z,51.83
2018-11-29T16:04:42.844Z,51.79
2018-11-29T16:07:10.496Z,52.12
2018-11-29T16:09:38.271Z,52.08
2018-11-29T16:12:06.087Z,52.09
2018-11-29T16:14:33.734Z,52.12
2018-11-29T16:17:01.372Z,52.10
2018-11-29T16:19:29.007Z,52.09
2018-11-29T16:21:56.696Z,51.84
2018-11-29T16:24:24.264Z,52.10
2018-11-29T16:26:52.007Z,51.87
2018-11-29T16:29:19.606Z,52.16
2018-11-29T16:31:47.294Z,51.87
2018-11-29T16:34:14.949Z,52.20
2018-11-29T16:36:42.578Z,52.04
2018-11-29T16:39:10.355Z,52.04
2018-11-29T16:41:37.972Z,51.66
2018-11-29T16:44:05.634Z,52.05
2018-11-29T16:46:33.264Z,51.97
2018-11-29T16:49:02.893Z,52.27
2018-11-29T16:51:28.724Z,51.95
2018-11-29T16:53:56.390Z,51.81
2018-11-29T16:56:24.101Z,51.89
2018-11-29T16:58:51.740Z,51.75
2018-11-29T17:01:19.370Z,51.87
2018-11-29T17:03:47.067Z,51.90
2018-11-29T17:06:14.721Z,51.74
2018-11-29T17:08:42.422Z,51.97
2018-11-29T17:11:10.102Z,51.75
2018-11-29T17:13:37.728Z,51.83
2018-11-29T17:16:05.901Z,51.88
2018-11-29T17:18:33.559Z,51.80
2018-11-29T17:21:01.241Z,51.76
2018-11-29T17:23:28.895Z,51.88
2018-11-29T17:25:56.603Z,51.64
2018-11-29T17:28:24.235Z,51.77
2018-11-29T17:30:51.896Z,51.88
2018-11-29T17:33:19.547Z,51.74
2018-11-29T17:35:47.177Z,51.66
2018-11-29T17:38:14.810Z,51.79
2018-11-29T17:40:42.413Z,51.73
2018-11-29T17:43:10.085Z,51.86
2018-11-29T17:45:37.920Z,51.73
2018-11-29T17:48:08.832Z,51.63
2018-11-29T17:50:40.695Z,51.68
2018-11-29T17:53:08.530Z,51.61
2018-11-29T17:55:36.252Z,51.65
2018-11-29T17:58:07.176Z,51.61
2018-11-29T18:00:34.837Z,51.97
2018-11-29T18:03:02.732Z,51.95
2018-11-29T18:05:30.433Z,51.72
2018-11-29T18:07:58.111Z,51.70
2018-11-29T18:10:27.079Z,51.45
2018-11-29T18:12:57.349Z,51.66
2018-11-29T18:15:26.372Z,51.69
2018-11-29T18:17:54.056Z,51.53
2018-11-29T18:20:21.644Z,51.39
2018-11-29T18:22:49.285Z,51.75
2018-11-29T18:25:17.204Z,51.32
2018-11-29T18:27:46.045Z,51.63
2018-11-29T18:30:14.726Z,51.43
2018-11-29T18:32:42.376Z,51.86
2018-11-29T18:35:11.447Z,52.09
2018-11-29T18:37:40.490Z,52.34
2018-11-29T18:40:10.021Z,52.54
2018-11-29T18:42:37.755Z,52.57
2018-11-29T18:45:08.232Z,52.72
2018-11-29T18:47:35.819Z,52.96
2018-11-29T18:50:03.512Z,52.78
2018-11-29T18:52:31.134Z,52.85
2018-11-29T18:55:00.379Z,52.99
2018-11-29T18:57:28.296Z,53.28
2018-11-29T18:59:56.952Z,53.31
2018-11-29T19:02:24.810Z,53.09
2018-11-29T19:04:52.472Z,53.18
2018-11-29T19:07:20.394Z,53.08
2018-11-29T19:09:48.013Z,53.13
2018-11-29T19:12:15.659Z,53.20
2018-11-29T19:14:44.256Z,52.67
2018-11-29T19:17:10.948Z,53.28
2018-11-29T19:19:38.659Z,53.68
2018-11-29T19:22:06.405Z,53.44
2018-11-29T19:24:34.035Z,53.21
2018-11-29T19:27:01.638Z,53.23
2018-11-29T19:29:29.296Z,53.32
2018-11-29T19:31:56.914Z,53.38
2018-11-29T19:34:24.608Z,53.58
2018-11-29T19:36:52.278Z,53.58
2018-11-29T19:39:19.942Z,53.57
2018-11-29T19:41:47.583Z,53.47
2018-11-29T19:44:15.256Z,53.81
2018-11-29T19:46:42.932Z,53.39
2018-11-29T19:49:10.714Z,53.74
2018-11-29T19:51:38.522Z,53.86
2018-11-29T19:54:06.154Z,53.89
2018-11-29T19:56:33.817Z,53.67
2018-11-29T19:59:01.486Z,53.80
2018-11-29T20:01:29.168Z,53.57
2018-11-29T20:03:56.825Z,53.53
2018-11-29T20:06:24.488Z,53.66
2018-11-29T20:08:52.257Z,53.92
2018-11-29T20:11:19.929Z,53.67
2018-11-29T20:13:47.617Z,53.88
2018-11-29T20:16:15.279Z,53.78
2018-11-29T20:18:42.916Z,53.62
2018-11-29T20:21:10.572Z,53.94
2018-11-29T20:23:38.482Z,53.66
2018-11-29T20:26:06.091Z,53.71
2018-11-29T20:28:33.713Z,53.57
2018-11-29T20:31:01.361Z,53.37
2018-11-29T20:33:29.001Z,53.68
2018-11-29T20:35:56.733Z,53.86
2018-11-29T20:38:24.364Z,53.85
2018-11-29T20:40:52.002Z,53.86
2018-11-29T20:43:19.674Z,54.17
2018-11-29T20:45:51.602Z,53.85
2018-11-29T20:48:21.575Z,53.79
2018-11-29T20:50:49.605Z,54.00
2018-11-29T20:53:19.176Z,53.67
2018-11-29T20:55:46.862Z,53.77
2018-11-29T20:58:14.506Z,53.78
2018-11-29T21:00:42.169Z,54.16
2018-11-29T21:03:10.216Z,54.21
2018-11-29T21:05:39.762Z,54.33
2018-11-29T21:08:08.257Z,54.32
2018-11-29T21:10:36.011Z,54.36
2018-11-29T21:13:06.103Z,54.24
2018-11-29T21:15:35.820Z,54.37
2018-11-29T21:18:03.495Z,54.35
2018-11-29T21:20:31.117Z,54.53
2018-11-29T21:22:59.208Z,54.48
2018-11-29T21:25:26.851Z,54.34
2018-11-29T21:27:54.496Z,54.42
2018-11-29T21:30:22.165Z,54.63
2018-11-29T21:32:50.068Z,54.64
2018-11-29T21:35:21.611Z,54.65
2018-11-29T21:37:50.084Z,54.87
2018-11-29T21:40:22.229Z,54.53
2018-11-29T21:42:50.046Z,54.62
2018-11-29T21:45:17.672Z,54.70
2018-11-29T21:47:45.303Z,54.77
2018-11-29T21:50:12.978Z,54.66
2018-11-29T21:52:40.659Z,54.70
2018-11-29T21:55:08.420Z,54.58
2018-11-29T21:57:36.170Z,54.67
2018-11-29T22:00:08.659Z,54.79
2018-11-29T22:02:41.639Z,55.00
2018-11-29T22:05:04.483Z,54.66
2018-11-29T22:07:32.229Z,54.76
2018-11-29T22:09:59.916Z,55.11
2018-11-29T22:12:27.725Z,54.75
2018-11-29T22:14:55.317Z,54.78
2018-11-29T22:17:22.971Z,54.92
2018-11-29T22:19:50.633Z,55.18
2018-11-29T22:22:18.322Z,54.83
2018-11-29T22:24:45.968Z,54.92
2018-11-29T22:27:13.655Z,54.79
2018-11-29T22:29:41.263Z,54.83
2018-11-29T22:32:08.938Z,54.71
2018-11-29T22:34:36.558Z,55.06
2018-11-29T22:37:04.237Z,54.84
2018-11-29T22:39:31.989Z,54.19
2018-11-29T22:41:59.679Z,54.48
2018-11-29T22:44:27.458Z,54.84
2018-11-29T22:46:55.123Z,54.75
2018-11-29T22:49:22.767Z,54.78
2018-11-29T22:51:50.556Z,54.72
2018-11-29T22:54:18.168Z,54.46
2018-11-29T22:56:45.851Z,55.19
2018-11-29T22:59:13.548Z,54.92
2018-11-29T23:01:41.313Z,54.92
2018-11-29T23:04:08.984Z,55.11
2018-11-29T23:06:36.605Z,54.96
2018-11-29T23:09:06.059Z,54.74
2018-11-29T23:11:33.701Z,54.95
2018-11-29T23:14:01.400Z,55.02
2018-11-29T23:16:29.046Z,55.08
2018-11-29T23:18:56.693Z,55.03
2018-11-29T23:21:24.353Z,55.14
2018-11-29T23:23:51.971Z,55.67
2018-11-29T23:26:19.659Z,55.71
2018-11-29T23:28:47.289Z,55.90
2018-11-29T23:31:14.948Z,55.56
2018-11-29T23:33:42.596Z,55.52
2018-11-29T23:45:17.165Z,55.02
2018-11-29T23:47:45.093Z,55.19
2018-11-29T23:50:14.744Z,55.30
2018-11-29T23:52:45.492Z,55.52
